createdAt,value
2023-01-12T00:01:42.493Z,100847.56
2023-01-12T00:04:12.736Z,100859.59
2023-01-12T00:06:40.347Z,100855.25
2023-01-12T00:09:07.657Z,100852.63
2023-01-12T00:11:35.556Z,100846.53
2023-01-12T00:14:02.493Z,100843.94
2023-01-12T00:16:34.880Z,100848.22
2023-01-12T00:19:15.635Z,100848.16
2023-01-12T00:21:59.248Z,100841.19
2023-01-12T00:24:31.020Z,100836.00
2023-01-12T00:26:59.322Z,100830.00
2023-01-12T00:29:26.908Z,100831.75
2023-01-12T00:31:54.945Z,100811.00
2023-01-12T00:34:21.612Z,100823.97
2023-01-12T00:36:48.374Z,100816.13
2023-01-12T00:39:15.968Z,100808.41
2023-01-12T00:42:02.124Z,100812.75
2023-01-12T00:44:47.432Z,100809.25
2023-01-12T00:47:15.248Z,100803.16
2023-01-12T00:49:41.890Z,100797.97
2023-01-12T00:52:15.560Z,100792.72
2023-01-12T00:54:48.137Z,100799.59
2023-01-12T00:57:15.482Z,100795.25
2023-01-12T00:59:44.514Z,100804.72
2023-01-12T01:02:12.550Z,100796.06
2023-01-12T01:04:39.032Z,100792.59
2023-01-12T01:07:05.548Z,100794.34
2023-01-12T01:09:31.968Z,100787.41
2023-01-12T01:11:58.482Z,100778.69
2023-01-12T01:14:25.747Z,100771.00
2023-01-12T01:16:52.267Z,100765.88
2023-01-12T01:19:18.879Z,100762.38
2023-01-12T01:21:45.527Z,100765.06
2023-01-12T01:24:13.281Z,100759.00
2023-01-12T01:26:40.603Z,100764.28
2023-01-12T01:29:07.407Z,100760.81
2023-01-12T01:31:34.245Z,100750.44
2023-01-12T01:34:00.698Z,100748.72
2023-01-12T01:36:27.202Z,100734.88
2023-01-12T01:38:53.685Z,100728.84
2023-01-12T01:41:24.032Z,100715.88
2023-01-12T01:44:00.217Z,100736.59
2023-01-12T01:46:33.515Z,100727.97
2023-01-12T01:49:34.967Z,100721.91
2023-01-12T01:52:08.417Z,100726.25
2023-01-12T01:54:41.177Z,100710.72
2023-01-12T01:57:10.088Z,100702.94
2023-01-12T01:59:39.811Z,100707.28
2023-01-12T02:02:06.972Z,100702.94
2023-01-12T02:04:33.555Z,100701.16
2023-01-12T02:07:02.392Z,100702.88
2023-01-12T02:09:30.755Z,100661.38
2023-01-12T02:12:16.854Z,100674.34
2023-01-12T02:15:05.686Z,100676.94
2023-01-12T02:17:32.025Z,100662.22
2023-01-12T02:20:04.400Z,100669.09
2023-01-12T02:22:50.088Z,100669.09
2023-01-12T02:25:38.339Z,100667.28
2023-01-12T02:28:43.092Z,100642.19
2023-01-12T02:31:24.730Z,100665.56
2023-01-12T02:34:09.714Z,100656.13
2023-01-12T02:37:10.424Z,100657.88
2023-01-12T02:39:45.007Z,100636.34
2023-01-12T02:42:42.170Z,100635.44
2023-01-12T02:45:43.332Z,100619.88
2023-01-12T02:48:21.831Z,100610.50
2023-01-12T02:51:07.451Z,100616.47
2023-01-12T02:53:56.839Z,100614.75
2023-01-12T02:56:36.854Z,100602.72
2023-01-12T02:59:11.949Z,100598.38
2023-01-12T03:01:40.993Z,100597.53
2023-01-12T03:04:09.065Z,100584.56
2023-01-12T03:06:55.847Z,100589.66
2023-01-12T03:09:28.687Z,100584.47
2023-01-12T03:12:00.885Z,100577.56
2023-01-12T03:14:29.739Z,100574.09
2023-01-12T03:16:56.707Z,100543.84
2023-01-12T03:19:30.322Z,100551.53
2023-01-12T03:22:07.556Z,100565.38
2023-01-12T03:24:39.445Z,100563.63
2023-01-12T03:27:14.270Z,100543.69
2023-01-12T03:29:50.293Z,100548.88
2023-01-12T03:32:18.084Z,100532.56
2023-01-12T03:34:45.890Z,100527.44
2023-01-12T03:37:37.289Z,100524.84
2023-01-12T03:40:15.115Z,100520.59
2023-01-12T03:42:58.745Z,100505.94
2023-01-12T03:45:31.497Z,100492.22
2023-01-12T03:48:05.353Z,100478.47
2023-01-12T03:50:41.525Z,100470.75
2023-01-12T03:53:10.305Z,100456.19
2023-01-12T03:55:38.177Z,100465.69
2023-01-12T03:58:05.374Z,100433.81
2023-01-12T04:00:32.078Z,100425.28
2023-01-12T04:03:10.993Z,100414.81
2023-01-12T04:05:38.453Z,100386.53
2023-01-12T04:08:05.976Z,100366.72
2023-01-12T04:10:32.519Z,100364.19
2023-01-12T04:12:58.980Z,100349.53
2023-01-12T04:15:25.622Z,100342.69
2023-01-12T04:17:52.055Z,100334.09
2023-01-12T04:20:18.932Z,100328.03
2023-01-12T04:22:46.329Z,100313.44
2023-01-12T04:25:15.686Z,100323.78
2023-01-12T04:27:51.978Z,100317.69
2023-01-12T04:30:22.875Z,100304.81
2023-01-12T04:32:50.297Z,100303.13
2023-01-12T04:35:17.041Z,100298.78
2023-01-12T04:37:44.450Z,100303.06
2023-01-12T04:40:13.102Z,100277.13
2023-01-12T04:43:02.062Z,100265.78
2023-01-12T04:45:30.649Z,100240.84
2023-01-12T04:48:01.394Z,100232.91
2023-01-12T04:50:27.876Z,100258.75
2023-01-12T04:52:54.290Z,100252.75
2023-01-12T04:55:20.811Z,100222.41
2023-01-12T04:57:47.440Z,100231.00
2023-01-12T05:00:14.281Z,100254.28
2023-01-12T05:02:40.675Z,100217.81
2023-01-12T05:05:08.659Z,100223.69
2023-01-12T05:07:35.339Z,100218.44
2023-01-12T05:10:20.634Z,100209.66
2023-01-12T05:12:47.417Z,100231.19
2023-01-12T05:15:13.895Z,100222.41
2023-01-12T05:17:40.394Z,100222.41
2023-01-12T05:20:07.442Z,100206.84
2023-01-12T05:22:33.868Z,100197.41
2023-01-12T05:25:00.277Z,100204.09
2023-01-12T05:27:26.693Z,100212.56
2023-01-12T05:29:53.079Z,100208.19
2023-01-12T05:32:19.606Z,100211.72
2023-01-12T05:34:46.024Z,100202.19
2023-01-12T05:37:12.392Z,100222.91
2023-01-12T05:39:38.785Z,100210.88
2023-01-12T05:42:23.595Z,100217.66
2023-01-12T05:44:49.969Z,100228.94
2023-01-12T05:47:16.399Z,100214.31
2023-01-12T05:49:42.772Z,100227.28
2023-01-12T05:52:09.222Z,100207.44
2023-01-12T05:54:35.610Z,100211.72
2023-01-12T05:57:02.009Z,100209.13
2023-01-12T05:59:28.433Z,100211.72
2023-01-12T06:01:54.789Z,100221.25
2023-01-12T06:04:21.250Z,100226.44
2023-01-12T06:06:48.711Z,100224.69
2023-01-12T06:09:15.238Z,100228.09
2023-01-12T06:11:59.894Z,100243.59
2023-01-12T06:14:26.800Z,100234.06
2023-01-12T06:16:53.220Z,100234.88
2023-01-12T06:19:19.644Z,100244.34
2023-01-12T06:21:46.070Z,100235.66
2023-01-12T06:24:12.568Z,100243.34
2023-01-12T06:26:39.085Z,100232.16
2023-01-12T06:29:07.048Z,100235.50
2023-01-12T06:31:34.043Z,100240.69
2023-01-12T06:34:00.649Z,100237.09
2023-01-12T06:36:27.101Z,100248.22
2023-01-12T06:38:53.497Z,100227.41
2023-01-12T06:41:45.744Z,100235.09
2023-01-12T06:44:12.160Z,100243.56
2023-01-12T06:46:38.688Z,100254.75
2023-01-12T06:49:05.234Z,100254.69
2023-01-12T06:51:31.728Z,100250.25
2023-01-12T06:53:58.144Z,100253.53
2023-01-12T06:56:24.559Z,100256.97
2023-01-12T06:58:50.914Z,100259.47
2023-01-12T07:01:17.414Z,100250.69
2023-01-12T07:03:44.212Z,100247.03
2023-01-12T07:06:10.765Z,100263.34
2023-01-12T07:08:37.339Z,100247.59
2023-01-12T07:11:08.073Z,100267.34
2023-01-12T07:13:34.834Z,100263.78
2023-01-12T07:16:02.160Z,100259.34
2023-01-12T07:18:29.668Z,100264.38
2023-01-12T07:20:56.171Z,100272.09
2023-01-12T07:23:23.058Z,100270.13
2023-01-12T07:25:49.505Z,100267.31
2023-01-12T07:28:16.083Z,100266.31
2023-01-12T07:30:43.590Z,100278.22
2023-01-12T07:33:12.579Z,100278.97
2023-01-12T07:35:39.702Z,100270.91
2023-01-12T07:38:06.426Z,100269.91
2023-01-12T07:40:33.553Z,100272.25
2023-01-12T07:43:01.504Z,100278.19
2023-01-12T07:45:29.264Z,100277.19
2023-01-12T07:47:56.676Z,100290.94
2023-01-12T07:50:24.715Z,100290.78
2023-01-12T07:52:51.346Z,100282.81
2023-01-12T07:55:19.227Z,100297.31
2023-01-12T07:57:55.866Z,100296.22
2023-01-12T08:00:23.414Z,100302.00
2023-01-12T08:02:53.875Z,100302.59
2023-01-12T08:05:22.370Z,100284.22
2023-01-12T08:07:48.828Z,100308.13
2023-01-12T08:10:16.145Z,100300.22
2023-01-12T08:12:42.562Z,100313.97
2023-01-12T08:15:10.353Z,100316.50
2023-01-12T08:17:42.221Z,100324.84
2023-01-12T08:20:13.807Z,100320.41
2023-01-12T08:22:43.663Z,100334.16
2023-01-12T08:25:15.945Z,100325.25
2023-01-12T08:27:47.236Z,100320.91
2023-01-12T08:30:17.566Z,100335.50
2023-01-12T08:32:43.948Z,100328.34
2023-01-12T08:35:13.445Z,100324.03
2023-01-12T08:37:39.983Z,100339.63
2023-01-12T08:40:07.279Z,100339.44
2023-01-12T08:42:33.677Z,100342.78
2023-01-12T08:45:00.321Z,100353.94
2023-01-12T08:47:28.299Z,100344.28
2023-01-12T08:49:55.387Z,100345.94
2023-01-12T08:52:22.069Z,100364.91
2023-01-12T08:54:49.736Z,100358.72
2023-01-12T08:57:16.944Z,100354.41
2023-01-12T08:59:43.335Z,100356.00
2023-01-12T09:02:15.079Z,100359.47
2023-01-12T09:04:41.998Z,100363.72
2023-01-12T09:07:10.545Z,100363.72
2023-01-12T09:09:37.167Z,100386.09
2023-01-12T09:12:04.678Z,100379.16
2023-01-12T09:14:33.553Z,100374.88
2023-01-12T09:16:59.959Z,100387.03
2023-01-12T09:19:26.376Z,100391.41
2023-01-12T09:21:52.859Z,100394.00
2023-01-12T09:24:20.002Z,100373.22
2023-01-12T09:26:47.111Z,100399.97
2023-01-12T09:29:14.560Z,100394.66
2023-01-12T09:31:44.190Z,100405.88
2023-01-12T09:34:10.727Z,100403.28
2023-01-12T09:36:39.231Z,100403.28
2023-01-12T09:39:09.822Z,100402.19
2023-01-12T09:42:03.030Z,100403.88
2023-01-12T09:45:00.734Z,100408.16
2023-01-12T09:47:53.655Z,100414.06
2023-01-12T09:50:28.263Z,100422.69
2023-01-12T09:53:03.467Z,100422.63
2023-01-12T09:55:47.237Z,100436.38
2023-01-12T09:58:39.363Z,100442.41
2023-01-12T10:01:17.572Z,100437.97
2023-01-12T10:03:55.556Z,100418.66
2023-01-12T10:06:25.217Z,100442.75
2023-01-12T10:08:57.488Z,100431.25
2023-01-12T10:11:33.377Z,100412.84
2023-01-12T10:14:24.506Z,100438.59
2023-01-12T10:17:15.872Z,100443.56
2023-01-12T10:20:04.419Z,100444.28
2023-01-12T10:22:44.273Z,100443.38
2023-01-12T10:25:16.580Z,100446.72
2023-01-12T10:27:45.204Z,100452.69
2023-01-12T10:30:17.401Z,100453.50
2023-01-12T10:32:44.321Z,100452.75
2023-01-12T10:35:17.191Z,100463.16
2023-01-12T10:37:52.282Z,100458.97
2023-01-12T10:40:27.011Z,100449.47
2023-01-12T10:43:24.023Z,100464.19
2023-01-12T10:46:04.339Z,100471.16
2023-01-12T10:48:31.406Z,100464.25
2023-01-12T10:51:07.707Z,100478.97
2023-01-12T10:54:11.405Z,100471.81
2023-01-12T10:56:44.208Z,100464.94
2023-01-12T10:59:13.409Z,100454.53
2023-01-12T11:01:43.102Z,100472.91
2023-01-12T11:04:13.769Z,100474.66
2023-01-12T11:06:44.198Z,100476.53
2023-01-12T11:09:20.381Z,100462.69
2023-01-12T11:11:46.980Z,100461.09
2023-01-12T11:14:25.495Z,100472.41
2023-01-12T11:16:52.033Z,100474.19
2023-01-12T11:19:35.394Z,100457.66
2023-01-12T11:22:20.782Z,100450.69
2023-01-12T11:24:57.054Z,100459.41
2023-01-12T11:30:16.032Z,100453.22
2023-01-12T11:32:59.996Z,100456.66
2023-01-12T11:35:51.456Z,100453.97
2023-01-12T11:38:41.661Z,100452.28
2023-01-12T11:41:19.083Z,100446.25
2023-01-12T11:43:56.165Z,100447.81
2023-01-12T11:46:34.739Z,100451.25
2023-01-12T11:49:27.232Z,100445.03
2023-01-12T11:51:56.774Z,100444.19
2023-01-12T11:54:25.188Z,100445.13
2023-01-12T11:57:27.554Z,100442.44
2023-01-12T12:00:18.869Z,100451.94
2023-01-12T12:03:11.734Z,100452.84
2023-01-12T12:05:50.513Z,100446.72
2023-01-12T12:08:23.006Z,100440.69
2023-01-12T12:10:54.475Z,100435.56
2023-01-12T12:13:42.983Z,100432.97
2023-01-12T12:16:18.698Z,100429.53
2023-01-12T12:19:23.831Z,100427.69
2023-01-12T12:21:54.922Z,100426.06
2023-01-12T12:24:39.413Z,100427.69
2023-01-12T12:27:15.407Z,100423.38
2023-01-12T12:30:16.103Z,100421.53
2023-01-12T12:33:06.990Z,100418.03
2023-01-12T12:35:58.853Z,100413.66
2023-01-12T12:39:08.547Z,100407.59
2023-01-12T12:42:15.214Z,100394.59
2023-01-12T12:45:09.666Z,100409.28
2023-01-12T12:48:07.332Z,100399.69
2023-01-12T12:50:44.401Z,100399.69
2023-01-12T12:53:35.903Z,100402.22
2023-01-12T12:56:08.847Z,100396.19
2023-01-12T12:58:40.175Z,100390.97
2023-01-12T13:01:25.389Z,100392.56
2023-01-12T13:04:06.641Z,100396.09
2023-01-12T13:06:43.943Z,100375.34
2023-01-12T13:09:14.259Z,100385.00
2023-01-12T13:12:00.466Z,100380.63
2023-01-12T13:14:30.107Z,100384.25
2023-01-12T13:17:03.569Z,100379.88
2023-01-12T13:19:42.821Z,100368.66
2023-01-12T13:22:30.956Z,100368.66
2023-01-12T13:25:01.366Z,100363.53
2023-01-12T13:27:47.477Z,100365.22
2023-01-12T13:30:23.041Z,100357.50
2023-01-12T13:32:55.228Z,100348.13
2023-01-12T13:35:28.027Z,100347.38
2023-01-12T13:38:03.259Z,100343.00
2023-01-12T13:40:31.978Z,100353.47
2023-01-12T13:43:19.746Z,100340.66
2023-01-12T13:45:52.206Z,100347.53
2023-01-12T13:48:19.677Z,100325.13
2023-01-12T13:50:53.767Z,100337.13
2023-01-12T13:53:28.378Z,100344.09
2023-01-12T13:55:56.520Z,100340.66
2023-01-12T13:58:23.210Z,100337.31
2023-01-12T14:00:58.764Z,100340.66
2023-01-12T14:03:49.790Z,100343.25
2023-01-12T14:06:35.151Z,100341.69
2023-01-12T14:09:24.730Z,100337.22
2023-01-12T14:12:14.957Z,100334.63
2023-01-12T14:15:12.683Z,100329.50
2023-01-12T14:17:58.023Z,100348.63
2023-01-12T14:20:32.995Z,100349.50
2023-01-12T14:23:18.102Z,100329.59
2023-01-12T14:25:46.028Z,100333.13
2023-01-12T14:28:21.998Z,100337.47
2023-01-12T14:30:52.315Z,100333.22
2023-01-12T14:33:21.291Z,100329.78
2023-01-12T14:35:50.323Z,100335.06
2023-01-12T14:38:19.150Z,100319.47
2023-01-12T14:41:30.893Z,100338.41
2023-01-12T14:44:16.226Z,100336.00
2023-01-12T14:46:54.185Z,100333.28
2023-01-12T14:49:22.210Z,100323.91
2023-01-12T14:52:17.108Z,100336.00
2023-01-12T14:54:43.951Z,100327.44
2023-01-12T14:57:34.600Z,100319.66
2023-01-12T15:00:02.698Z,100313.69
2023-01-12T15:02:38.601Z,100317.13
2023-01-12T15:05:11.508Z,100310.97
2023-01-12T15:07:54.949Z,100317.13
2023-01-12T15:10:21.487Z,100316.38
2023-01-12T15:12:54.505Z,100315.44
2023-01-12T15:15:50.400Z,100309.41
2023-01-12T15:18:35.516Z,100301.59
2023-01-12T15:21:21.915Z,100301.59
2023-01-12T15:24:07.713Z,100291.28
2023-01-12T15:26:34.398Z,100300.78
2023-01-12T15:29:01.000Z,100294.75
2023-01-12T15:31:27.937Z,100296.41
2023-01-12T15:33:55.874Z,100299.09
2023-01-12T15:36:22.720Z,100286.19
2023-01-12T15:38:49.419Z,100297.50
2023-01-12T15:41:46.636Z,100299.94
2023-01-12T15:44:15.072Z,100291.41
2023-01-12T15:46:42.045Z,100289.63
2023-01-12T15:49:09.478Z,100287.03
2023-01-12T15:51:37.071Z,100284.41
2023-01-12T15:54:04.407Z,100281.81
2023-01-12T15:56:31.463Z,100291.41
2023-01-12T15:58:57.952Z,100272.25
2023-01-12T16:01:31.062Z,100278.28
2023-01-12T16:04:35.600Z,100291.28
2023-01-12T16:06:44.622Z,100286.19
2023-01-12T16:09:11.406Z,100274.09
2023-01-12T16:11:38.164Z,100288.78
2023-01-12T16:14:08.751Z,100282.84
2023-01-12T16:16:38.671Z,100289.69
2023-01-12T16:19:09.468Z,100304.56
2023-01-12T16:21:36.716Z,100299.34
2023-01-12T16:24:03.865Z,100311.53
2023-01-12T16:26:30.927Z,100305.50
2023-01-12T16:28:58.419Z,100312.38
2023-01-12T16:31:25.804Z,100312.47
2023-01-12T16:33:52.393Z,100303.91
2023-01-12T16:36:18.871Z,100315.22
2023-01-12T16:38:45.493Z,100304.84
2023-01-12T16:41:22.295Z,100330.84
2023-01-12T16:43:49.566Z,100323.13
2023-01-12T16:46:17.055Z,100320.50
2023-01-12T16:48:43.936Z,100316.19
2023-01-12T16:51:14.865Z,100323.13
2023-01-12T16:53:42.280Z,100314.47
2023-01-12T16:56:14.962Z,100310.03
2023-01-12T16:58:47.586Z,100311.88
2023-01-12T17:01:17.325Z,100311.81
2023-01-12T17:03:44.167Z,100297.13
2023-01-12T17:06:13.185Z,100294.50
2023-01-12T17:08:41.637Z,100298.81
2023-01-12T17:11:10.089Z,100292.78
2023-01-12T17:13:37.420Z,100298.81
2023-01-12T17:16:07.579Z,100286.63
2023-01-12T17:18:34.501Z,100289.31
2023-01-12T17:21:03.102Z,100283.19
2023-01-12T17:23:29.744Z,100284.03
2023-01-12T17:26:01.181Z,100271.97
2023-01-12T17:28:29.765Z,100272.78
2023-01-12T17:30:59.552Z,100261.38
2023-01-12T17:33:26.099Z,100272.72
2023-01-12T17:35:52.594Z,100272.59
2023-01-12T17:38:19.795Z,100282.19
2023-01-12T17:40:46.404Z,100272.59
2023-01-12T17:43:14.731Z,100270.88
2023-01-12T17:45:42.770Z,100286.53
2023-01-12T17:48:13.193Z,100297.78
2023-01-12T17:50:40.559Z,100298.59
2023-01-12T17:53:10.161Z,100297.78
2023-01-12T17:55:47.553Z,100305.59
2023-01-12T17:58:14.634Z,100293.41
2023-01-12T18:00:41.095Z,100298.72
2023-01-12T18:03:07.686Z,100292.66
2023-01-12T18:05:34.123Z,100293.59
2023-01-12T18:08:00.538Z,100292.78
2023-01-12T18:10:27.348Z,100295.38
2023-01-12T18:12:53.964Z,100298.81
2023-01-12T18:15:20.367Z,100301.41
2023-01-12T18:17:46.836Z,100284.97
2023-01-12T18:20:13.230Z,100295.38
2023-01-12T18:22:39.668Z,100287.56
2023-01-12T18:25:06.382Z,100287.56
2023-01-12T18:27:32.974Z,100289.22
2023-01-12T18:29:59.371Z,100284.09
2023-01-12T18:32:25.826Z,100283.28
2023-01-12T18:34:52.537Z,100282.38
2023-01-12T18:37:18.950Z,100284.09
2023-01-12T18:39:46.816Z,100278.00
2023-01-12T18:42:31.800Z,100272.78
2023-01-12T18:44:59.682Z,100289.31
2023-01-12T18:47:44.656Z,100286.78
2023-01-12T18:50:31.144Z,100286.13
2023-01-12T18:53:16.001Z,100290.38
2023-01-12T18:55:43.961Z,100299.03
2023-01-12T18:58:10.358Z,100291.25
2023-01-12T19:00:37.073Z,100291.13
2023-01-12T19:03:05.326Z,100276.47
2023-01-12T19:05:41.595Z,100285.19
2023-01-12T19:08:26.754Z,100285.19
2023-01-12T19:10:53.574Z,100283.53
2023-01-12T19:13:38.545Z,100280.16
2023-01-12T19:16:25.453Z,100279.22
2023-01-12T19:18:52.025Z,100286.28
2023-01-12T19:21:37.099Z,100265.47
2023-01-12T19:24:22.455Z,100258.63
2023-01-12T19:27:07.391Z,100270.78
2023-01-12T19:29:35.420Z,100259.38
2023-01-12T19:32:02.421Z,100268.94
2023-01-12T19:34:28.896Z,100253.34
2023-01-12T19:36:55.418Z,100260.28
2023-01-12T19:39:34.314Z,100253.34
2023-01-12T19:42:19.534Z,100254.16
2023-01-12T19:44:45.933Z,100258.63
2023-01-12T19:47:12.427Z,100234.28
2023-01-12T19:49:38.935Z,100248.88
2023-01-12T19:52:05.514Z,100239.41
2023-01-12T19:54:31.961Z,100241.09
2023-01-12T19:56:58.504Z,100240.22
2023-01-12T19:59:25.057Z,100234.19
2023-01-12T20:01:53.840Z,100222.03
2023-01-12T20:04:20.588Z,100222.03
2023-01-12T20:06:47.015Z,100230.03
2023-01-12T20:09:13.415Z,100231.88
2023-01-12T20:11:39.835Z,100232.91
2023-01-12T20:14:06.283Z,100228.72
2023-01-12T20:16:33.550Z,100230.56
2023-01-12T20:18:59.933Z,100246.16
2023-01-12T20:21:30.055Z,100224.63
2023-01-12T20:23:56.673Z,100240.31
2023-01-12T20:26:23.537Z,100248.09
2023-01-12T20:28:50.617Z,100254.13
2023-01-12T20:31:18.025Z,100243.81
2023-01-12T20:33:44.837Z,100241.31
2023-01-12T20:36:14.175Z,100262.19
2023-01-12T20:38:41.028Z,100259.78
2023-01-12T20:41:08.294Z,100239.06
2023-01-12T20:43:34.736Z,100241.00
2023-01-12T20:46:01.112Z,100235.88
2023-01-12T20:48:27.609Z,100238.09
2023-01-12T20:50:54.611Z,100235.09
2023-01-12T20:53:21.034Z,100250.44
2023-01-12T20:55:50.973Z,100229.28
2023-01-12T20:58:18.642Z,100246.78
2023-01-12T21:00:45.263Z,100245.28
2023-01-12T21:03:11.964Z,100244.44
2023-01-12T21:05:43.392Z,100227.03
2023-01-12T21:08:10.278Z,100255.50
2023-01-12T21:10:37.801Z,100248.38
2023-01-12T21:13:05.113Z,100244.00
2023-01-12T21:15:31.529Z,100211.09
2023-01-12T21:17:57.948Z,100230.94
2023-01-12T21:20:24.821Z,100236.06
2023-01-12T21:22:51.926Z,100228.25
2023-01-12T21:25:18.318Z,100233.53
2023-01-12T21:27:44.683Z,100234.28
2023-01-12T21:30:12.396Z,100221.38
2023-01-12T21:32:38.875Z,100222.31
2023-01-12T21:35:05.742Z,100211.19
2023-01-12T21:37:32.155Z,100200.88
2023-01-12T21:39:58.517Z,100200.88
2023-01-12T21:42:43.445Z,100207.91
2023-01-12T21:45:10.081Z,100223.56
2023-01-12T21:47:36.489Z,100206.25
2023-01-12T21:50:02.942Z,100214.78
2023-01-12T21:52:33.111Z,100217.38
2023-01-12T21:54:59.997Z,100201.88
2023-01-12T21:57:26.648Z,100234.16
2023-01-12T21:59:53.537Z,100242.19
2023-01-12T22:02:19.955Z,100242.19
2023-01-12T22:04:46.355Z,100258.78
2023-01-12T22:07:13.537Z,100256.41
2023-01-12T22:09:40.807Z,100261.72
2023-01-12T22:12:07.552Z,100257.63
2023-01-12T22:14:33.992Z,100261.22
2023-01-12T22:17:00.512Z,100260.53
2023-01-12T22:19:26.918Z,100263.28
2023-01-12T22:21:53.429Z,100264.16
2023-01-12T22:24:20.051Z,100271.06
2023-01-12T22:26:46.413Z,100265.13
2023-01-12T22:29:13.034Z,100272.09
2023-01-12T22:31:39.574Z,100283.41
2023-01-12T22:34:06.929Z,100282.56
2023-01-12T22:36:40.899Z,100268.72
2023-01-12T22:39:09.930Z,100269.66
2023-01-12T22:41:36.404Z,100286.91
2023-01-12T22:44:02.829Z,100273.16
2023-01-12T22:46:29.224Z,100282.78
2023-01-12T22:48:57.130Z,100282.97
2023-01-12T22:51:26.045Z,100291.00
2023-01-12T22:53:53.681Z,100301.38
2023-01-12T22:56:20.271Z,100297.19
2023-01-12T22:58:48.553Z,100295.69
2023-01-12T23:01:16.121Z,100295.00
2023-01-12T23:03:42.908Z,100296.75
2023-01-12T23:06:14.889Z,100285.63
2023-01-12T23:08:43.789Z,100284.09
2023-01-12T23:11:22.015Z,100288.47
2023-01-12T23:13:49.280Z,100289.53
2023-01-12T23:16:17.668Z,100295.38
2023-01-12T23:18:46.058Z,100286.44
2023-01-12T23:21:15.396Z,100298.34
2023-01-12T23:23:50.928Z,100298.03
2023-01-12T23:26:23.158Z,100294.69
2023-01-12T23:28:52.719Z,100292.16
2023-01-12T23:31:27.623Z,100286.28
2023-01-12T23:33:54.028Z,100302.03
2023-01-12T23:36:26.028Z,100294.31
2023-01-12T23:38:57.972Z,100291.78
2023-01-12T23:41:26.563Z,100288.59
2023-01-12T23:43:56.209Z,100295.69
2023-01-12T23:46:23.984Z,100282.91
2023-01-12T23:48:51.491Z,100287.50
2023-01-12T23:51:17.891Z,100292.00
2023-01-12T23:53:45.165Z,100289.56
2023-01-12T23:56:14.795Z,100301.84
2023-01-12T23:58:42.129Z,100294.22
